sensor_id;sensor_type;location;lat;lon;timestamp;P1;durP1;ratioP1;P2;durP2;ratioP2
8058;SDS011;4072;42.668;23.396;2022-09-03T00:02:25;4.87;;;4.43;;
8058;SDS011;4072;42.668;23.396;2022-09-03T00:04:56;8.00;;;5.57;;
8058;SDS011;4072;42.668;23.396;2022-09-03T00:07:28;5.80;;;4.23;;
8058;SDS011;4072;42.668;23.396;2022-09-03T00:09:58;7.60;;;4.07;;
8058;SDS011;4072;42.668;23.396;2022-09-03T00:12:31;5.23;;;4.73;;
8058;SDS011;4072;42.668;23.396;2022-09-03T00:15:03;5.57;;;4.17;;
8058;SDS011;4072;42.668;23.396;2022-09-03T00:17:33;6.10;;;4.57;;
8058;SDS011;4072;42.668;23.396;2022-09-03T00:20:03;7.10;;;4.53;;
8058;SDS011;4072;42.668;23.396;2022-09-03T00:22:33;5.43;;;4.93;;
8058;SDS011;4072;42.668;23.396;2022-09-03T00:25:04;5.47;;;4.67;;
8058;SDS011;4072;42.668;23.396;2022-09-03T00:27:37;5.10;;;4.57;;
8058;SDS011;4072;42.668;23.396;2022-09-03T00:30:09;5.80;;;5.10;;
8058;SDS011;4072;42.668;23.396;2022-09-03T00:32:43;7.03;;;5.23;;
8058;SDS011;4072;42.668;23.396;2022-09-03T00:35:14;4.80;;;4.30;;
8058;SDS011;4072;42.668;23.396;2022-09-03T00:37:43;5.20;;;4.60;;
8058;SDS011;4072;42.668;23.396;2022-09-03T00:40:13;6.80;;;4.93;;
8058;SDS011;4072;42.668;23.396;2022-09-03T00:42:46;5.30;;;4.70;;
8058;SDS011;4072;42.668;23.396;2022-09-03T00:45:22;5.50;;;4.43;;
8058;SDS011;4072;42.668;23.396;2022-09-03T00:47:55;5.67;;;5.00;;
8058;SDS011;4072;42.668;23.396;2022-09-03T00:50:27;4.93;;;4.43;;
8058;SDS011;4072;42.668;23.396;2022-09-03T00:52:59;6.00;;;4.77;;
8058;SDS011;4072;42.668;23.396;2022-09-03T00:55:33;5.90;;;4.50;;
8058;SDS011;4072;42.668;23.396;2022-09-03T00:58:11;5.50;;;5.00;;
8058;SDS011;4072;42.668;23.396;2022-09-03T01:00:45;5.87;;;4.63;;
8058;SDS011;4072;42.668;23.396;2022-09-03T01:03:14;4.87;;;4.43;;
8058;SDS011;4072;42.668;23.396;2022-09-03T01:05:52;4.83;;;4.40;;
8058;SDS011;4072;42.668;23.396;2022-09-03T01:08:34;4.93;;;4.30;;
8058;SDS011;4072;42.668;23.396;2022-09-03T01:11:10;7.23;;;5.27;;
8058;SDS011;4072;42.668;23.396;2022-09-03T01:13:46;7.33;;;4.97;;
8058;SDS011;4072;42.668;23.396;2022-09-03T01:16:19;5.53;;;4.80;;
8058;SDS011;4072;42.668;23.396;2022-09-03T01:18:52;4.70;;;4.30;;
8058;SDS011;4072;42.668;23.396;2022-09-03T01:21:27;6.90;;;4.83;;
8058;SDS011;4072;42.668;23.396;2022-09-03T01:24:13;5.20;;;4.60;;
8058;SDS011;4072;42.668;23.396;2022-09-03T01:26:58;4.87;;;4.37;;
8058;SDS011;4072;42.668;23.396;2022-09-03T01:29:31;5.47;;;4.97;;
8058;SDS011;4072;42.668;23.396;2022-09-03T01:32:06;6.10;;;5.07;;
8058;SDS011;4072;42.668;23.396;2022-09-03T01:34:42;5.10;;;4.63;;
8058;SDS011;4072;42.668;23.396;2022-09-03T01:37:13;6.73;;;5.23;;
8058;SDS011;4072;42.668;23.396;2022-09-03T01:39:44;5.43;;;4.93;;
8058;SDS011;4072;42.668;23.396;2022-09-03T01:42:18;4.73;;;4.33;;
8058;SDS011;4072;42.668;23.396;2022-09-03T01:44:58;5.90;;;5.07;;
8058;SDS011;4072;42.668;23.396;2022-09-03T01:47:33;5.90;;;4.50;;
8058;SDS011;4072;42.668;23.396;2022-09-03T01:50:06;5.40;;;4.47;;
8058;SDS011;4072;42.668;23.396;2022-09-03T01:52:39;6.67;;;5.97;;
8058;SDS011;4072;42.668;23.396;2022-09-03T01:55:13;6.63;;;5.07;;
8058;SDS011;4072;42.668;23.396;2022-09-03T01:57:47;4.53;;;4.13;;
8058;SDS011;4072;42.668;23.396;2022-09-03T02:00:19;7.30;;;5.67;;
8058;SDS011;4072;42.668;23.396;2022-09-03T02:02:47;5.87;;;5.27;;
8058;SDS011;4072;42.668;23.396;2022-09-03T02:05:17;5.00;;;4.57;;
8058;SDS011;4072;42.668;23.396;2022-09-03T02:07:49;6.37;;;5.20;;
8058;SDS011;4072;42.668;23.396;2022-09-03T02:10:19;6.07;;;4.70;;
8058;SDS011;4072;42.668;23.396;2022-09-03T02:12:47;6.97;;;5.27;;
8058;SDS011;4072;42.668;23.396;2022-09-03T02:15:16;6.80;;;5.53;;
8058;SDS011;4072;42.668;23.396;2022-09-03T02:17:46;6.70;;;5.70;;
8058;SDS011;4072;42.668;23.396;2022-09-03T02:20:16;6.10;;;4.43;;
8058;SDS011;4072;42.668;23.396;2022-09-03T02:22:47;5.20;;;4.57;;
8058;SDS011;4072;42.668;23.396;2022-09-03T02:25:16;5.57;;;5.07;;
8058;SDS011;4072;42.668;23.396;2022-09-03T02:27:44;5.67;;;5.03;;
8058;SDS011;4072;42.668;23.396;2022-09-03T02:30:12;4.97;;;4.47;;
8058;SDS011;4072;42.668;23.396;2022-09-03T02:32:40;5.77;;;4.93;;
8058;SDS011;4072;42.668;23.396;2022-09-03T02:35:09;5.30;;;4.67;;
8058;SDS011;4072;42.668;23.396;2022-09-03T02:37:38;5.47;;;4.83;;
8058;SDS011;4072;42.668;23.396;2022-09-03T02:40:07;5.63;;;4.90;;
8058;SDS011;4072;42.668;23.396;2022-09-03T02:42:36;6.80;;;5.67;;
8058;SDS011;4072;42.668;23.396;2022-09-03T02:45:06;5.90;;;5.30;;
8058;SDS011;4072;42.668;23.396;2022-09-03T02:47:36;7.53;;;5.40;;
8058;SDS011;4072;42.668;23.396;2022-09-03T02:50:08;6.13;;;5.43;;
8058;SDS011;4072;42.668;23.396;2022-09-03T02:52:36;5.53;;;5.03;;
8058;SDS011;4072;42.668;23.396;2022-09-03T02:55:05;7.60;;;5.97;;
8058;SDS011;4072;42.668;23.396;2022-09-03T02:57:33;7.63;;;5.80;;
8058;SDS011;4072;42.668;23.396;2022-09-03T03:00:01;6.10;;;5.30;;
8058;SDS011;4072;42.668;23.396;2022-09-03T03:02:29;6.17;;;5.57;;
8058;SDS011;4072;42.668;23.396;2022-09-03T03:04:57;6.50;;;5.80;;
8058;SDS011;4072;42.668;23.396;2022-09-03T03:07:26;6.33;;;5.73;;
8058;SDS011;4072;42.668;23.396;2022-09-03T03:09:54;7.80;;;5.77;;
8058;SDS011;4072;42.668;23.396;2022-09-03T03:12:22;7.90;;;6.20;;
8058;SDS011;4072;42.668;23.396;2022-09-03T03:14:50;6.83;;;5.90;;
8058;SDS011;4072;42.668;23.396;2022-09-03T03:17:18;5.70;;;5.10;;
8058;SDS011;4072;42.668;23.396;2022-09-03T03:19:46;6.73;;;5.50;;
8058;SDS011;4072;42.668;23.396;2022-09-03T03:22:14;6.77;;;5.60;;
8058;SDS011;4072;42.668;23.396;2022-09-03T03:24:43;7.90;;;6.03;;
8058;SDS011;4072;42.668;23.396;2022-09-03T03:27:11;7.07;;;6.37;;
8058;SDS011;4072;42.668;23.396;2022-09-03T03:29:40;8.23;;;6.57;;
8058;SDS011;4072;42.668;23.396;2022-09-03T03:32:08;6.70;;;6.00;;
8058;SDS011;4072;42.668;23.396;2022-09-03T03:34:36;6.33;;;5.30;;
8058;SDS011;4072;42.668;23.396;2022-09-03T03:37:05;7.37;;;6.50;;
8058;SDS011;4072;42.668;23.396;2022-09-03T03:39:32;6.90;;;5.63;;
8058;SDS011;4072;42.668;23.396;2022-09-03T03:42:02;6.03;;;5.43;;
8058;SDS011;4072;42.668;23.396;2022-09-03T03:44:29;6.50;;;5.87;;
8058;SDS011;4072;42.668;23.396;2022-09-03T03:46:57;14.23;;;6.90;;
8058;SDS011;4072;42.668;23.396;2022-09-03T03:49:25;6.87;;;5.10;;
8058;SDS011;4072;42.668;23.396;2022-09-03T03:51:52;6.83;;;5.37;;
8058;SDS011;4072;42.668;23.396;2022-09-03T03:54:20;6.20;;;5.13;;
8058;SDS011;4072;42.668;23.396;2022-09-03T03:56:48;5.80;;;5.13;;
8058;SDS011;4072;42.668;23.396;2022-09-03T03:59:22;6.20;;;5.60;;
8058;SDS011;4072;42.668;23.396;2022-09-03T04:01:50;7.63;;;5.47;;
8058;SDS011;4072;42.668;23.396;2022-09-03T04:04:18;8.07;;;6.13;;
8058;SDS011;4072;42.668;23.396;2022-09-03T04:06:45;6.80;;;5.77;;
8058;SDS011;4072;42.668;23.396;2022-09-03T04:09:13;6.20;;;5.43;;
8058;SDS011;4072;42.668;23.396;2022-09-03T04:11:41;8.10;;;5.30;;
8058;SDS011;4072;42.668;23.396;2022-09-03T04:14:09;9.97;;;5.27;;
8058;SDS011;4072;42.668;23.396;2022-09-03T04:16:38;6.20;;;5.60;;
8058;SDS011;4072;42.668;23.396;2022-09-03T04:19:06;6.80;;;5.77;;
8058;SDS011;4072;42.668;23.396;2022-09-03T04:21:33;6.87;;;5.97;;
8058;SDS011;4072;42.668;23.396;2022-09-03T04:24:02;7.23;;;5.53;;
8058;SDS011;4072;42.668;23.396;2022-09-03T04:26:31;7.57;;;5.97;;
8058;SDS011;4072;42.668;23.396;2022-09-03T04:28:59;6.07;;;5.47;;
8058;SDS011;4072;42.668;23.396;2022-09-03T04:31:29;6.47;;;5.43;;
8058;SDS011;4072;42.668;23.396;2022-09-03T04:33:59;6.07;;;5.47;;
8058;SDS011;4072;42.668;23.396;2022-09-03T04:36:27;6.27;;;4.83;;
8058;SDS011;4072;42.668;23.396;2022-09-03T04:38:57;6.93;;;5.63;;
8058;SDS011;4072;42.668;23.396;2022-09-03T04:41:25;5.93;;;5.33;;
8058;SDS011;4072;42.668;23.396;2022-09-03T04:43:54;6.07;;;5.47;;
8058;SDS011;4072;42.668;23.396;2022-09-03T04:46:23;7.20;;;6.17;;
8058;SDS011;4072;42.668;23.396;2022-09-03T04:48:52;6.70;;;5.77;;
8058;SDS011;4072;42.668;23.396;2022-09-03T04:51:22;6.77;;;6.00;;
8058;SDS011;4072;42.668;23.396;2022-09-03T04:53:52;6.17;;;5.57;;
8058;SDS011;4072;42.668;23.396;2022-09-03T04:56:21;6.43;;;5.83;;
8058;SDS011;4072;42.668;23.396;2022-09-03T04:58:53;7.20;;;5.60;;
8058;SDS011;4072;42.668;23.396;2022-09-03T05:01:21;6.53;;;5.77;;
8058;SDS011;4072;42.668;23.396;2022-09-03T05:03:49;6.93;;;6.23;;
8058;SDS011;4072;42.668;23.396;2022-09-03T05:06:17;5.53;;;4.97;;
8058;SDS011;4072;42.668;23.396;2022-09-03T05:08:47;5.83;;;5.23;;
8058;SDS011;4072;42.668;23.396;2022-09-03T05:11:16;6.27;;;5.67;;
8058;SDS011;4072;42.668;23.396;2022-09-03T05:13:45;6.20;;;5.60;;
8058;SDS011;4072;42.668;23.396;2022-09-03T05:16:14;7.03;;;6.10;;
8058;SDS011;4072;42.668;23.396;2022-09-03T05:18:42;7.37;;;6.40;;
8058;SDS011;4072;42.668;23.396;2022-09-03T05:21:10;6.57;;;5.97;;
8058;SDS011;4072;42.668;23.396;2022-09-03T05:23:39;7.30;;;6.50;;
8058;SDS011;4072;42.668;23.396;2022-09-03T05:26:10;6.63;;;5.57;;
8058;SDS011;4072;42.668;23.396;2022-09-03T05:28:38;6.40;;;5.80;;
8058;SDS011;4072;42.668;23.396;2022-09-03T05:31:07;5.43;;;4.83;;
8058;SDS011;4072;42.668;23.396;2022-09-03T05:33:36;5.50;;;4.93;;
8058;SDS011;4072;42.668;23.396;2022-09-03T05:36:05;8.37;;;5.63;;
8058;SDS011;4072;42.668;23.396;2022-09-03T05:38:33;6.77;;;4.90;;
8058;SDS011;4072;42.668;23.396;2022-09-03T05:41:02;5.20;;;4.67;;
8058;SDS011;4072;42.668;23.396;2022-09-03T05:43:31;7.53;;;5.10;;
8058;SDS011;4072;42.668;23.396;2022-09-03T05:46:00;6.00;;;4.93;;
8058;SDS011;4072;42.668;23.396;2022-09-03T05:48:28;5.33;;;4.87;;
8058;SDS011;4072;42.668;23.396;2022-09-03T05:50:59;6.40;;;5.67;;
8058;SDS011;4072;42.668;23.396;2022-09-03T05:53:27;6.27;;;5.67;;
8058;SDS011;4072;42.668;23.396;2022-09-03T05:55:56;7.80;;;6.83;;
8058;SDS011;4072;42.668;23.396;2022-09-03T05:58:24;5.60;;;5.00;;
8058;SDS011;4072;42.668;23.396;2022-09-03T06:00:53;5.83;;;4.97;;
8058;SDS011;4072;42.668;23.396;2022-09-03T06:03:21;6.30;;;5.70;;
8058;SDS011;4072;42.668;23.396;2022-09-03T06:05:49;6.30;;;5.30;;
8058;SDS011;4072;42.668;23.396;2022-09-03T06:08:17;6.53;;;5.57;;
8058;SDS011;4072;42.668;23.396;2022-09-03T06:10:45;6.40;;;5.30;;
8058;SDS011;4072;42.668;23.396;2022-09-03T06:13:13;5.20;;;4.70;;
8058;SDS011;4072;42.668;23.396;2022-09-03T06:15:41;6.73;;;6.03;;
8058;SDS011;4072;42.668;23.396;2022-09-03T06:18:10;6.53;;;5.23;;
8058;SDS011;4072;42.668;23.396;2022-09-03T06:20:37;5.40;;;4.67;;
8058;SDS011;4072;42.668;23.396;2022-09-03T06:23:05;5.13;;;4.60;;
8058;SDS011;4072;42.668;23.396;2022-09-03T06:25:33;5.67;;;4.57;;
8058;SDS011;4072;42.668;23.396;2022-09-03T06:28:01;6.20;;;5.60;;
8058;SDS011;4072;42.668;23.396;2022-09-03T06:30:29;6.13;;;5.53;;
8058;SDS011;4072;42.668;23.396;2022-09-03T06:32:57;6.63;;;6.03;;
8058;SDS011;4072;42.668;23.396;2022-09-03T06:35:26;6.33;;;5.70;;
8058;SDS011;4072;42.668;23.396;2022-09-03T06:37:56;7.80;;;6.67;;
8058;SDS011;4072;42.668;23.396;2022-09-03T06:40:25;7.23;;;6.00;;
8058;SDS011;4072;42.668;23.396;2022-09-03T06:42:54;9.40;;;5.67;;
8058;SDS011;4072;42.668;23.396;2022-09-03T06:45:27;7.57;;;6.87;;
8058;SDS011;4072;42.668;23.396;2022-09-03T06:47:55;6.70;;;6.10;;
8058;SDS011;4072;42.668;23.396;2022-09-03T06:50:23;6.20;;;5.57;;
8058;SDS011;4072;42.668;23.396;2022-09-03T06:52:52;8.63;;;5.57;;
8058;SDS011;4072;42.668;23.396;2022-09-03T06:55:21;8.70;;;5.30;;
8058;SDS011;4072;42.668;23.396;2022-09-03T06:57:48;7.03;;;5.10;;
8058;SDS011;4072;42.668;23.396;2022-09-03T07:00:19;8.00;;;5.30;;
8058;SDS011;4072;42.668;23.396;2022-09-03T07:02:54;9.63;;;6.00;;
8058;SDS011;4072;42.668;23.396;2022-09-03T07:05:24;6.77;;;5.67;;
8058;SDS011;4072;42.668;23.396;2022-09-03T07:07:55;5.27;;;4.37;;
8058;SDS011;4072;42.668;23.396;2022-09-03T07:10:23;7.20;;;5.50;;
8058;SDS011;4072;42.668;23.396;2022-09-03T07:12:53;6.73;;;5.23;;
8058;SDS011;4072;42.668;23.396;2022-09-03T07:15:21;6.50;;;5.37;;
8058;SDS011;4072;42.668;23.396;2022-09-03T07:17:49;6.83;;;5.10;;
8058;SDS011;4072;42.668;23.396;2022-09-03T07:20:17;5.87;;;5.27;;
8058;SDS011;4072;42.668;23.396;2022-09-03T07:22:45;9.47;;;5.93;;
8058;SDS011;4072;42.668;23.396;2022-09-03T07:25:15;7.23;;;6.30;;
8058;SDS011;4072;42.668;23.396;2022-09-03T07:27:43;6.03;;;5.43;;
8058;SDS011;4072;42.668;23.396;2022-09-03T07:30:11;5.90;;;5.30;;
8058;SDS011;4072;42.668;23.396;2022-09-03T07:32:38;8.30;;;6.90;;
8058;SDS011;4072;42.668;23.396;2022-09-03T07:35:06;6.13;;;5.37;;
8058;SDS011;4072;42.668;23.396;2022-09-03T07:37:34;6.40;;;5.77;;
8058;SDS011;4072;42.668;23.396;2022-09-03T07:40:04;6.43;;;5.67;;
8058;SDS011;4072;42.668;23.396;2022-09-03T07:42:33;6.40;;;5.80;;
8058;SDS011;4072;42.668;23.396;2022-09-03T07:45:04;6.27;;;5.67;;
8058;SDS011;4072;42.668;23.396;2022-09-03T07:47:35;6.90;;;6.30;;
8058;SDS011;4072;42.668;23.396;2022-09-03T07:50:04;6.47;;;5.83;;
8058;SDS011;4072;42.668;23.396;2022-09-03T07:52:32;6.30;;;5.60;;
8058;SDS011;4072;42.668;23.396;2022-09-03T07:55:00;6.70;;;5.90;;
8058;SDS011;4072;42.668;23.396;2022-09-03T07:57:28;6.20;;;5.70;;
8058;SDS011;4072;42.668;23.396;2022-09-03T07:59:57;6.50;;;5.90;;
8058;SDS011;4072;42.668;23.396;2022-09-03T08:02:25;5.60;;;5.10;;
8058;SDS011;4072;42.668;23.396;2022-09-03T08:04:52;6.20;;;5.20;;
8058;SDS011;4072;42.668;23.396;2022-09-03T08:07:20;5.30;;;4.90;;
8058;SDS011;4072;42.668;23.396;2022-09-03T08:09:48;7.20;;;5.63;;
8058;SDS011;4072;42.668;23.396;2022-09-03T08:12:16;6.63;;;5.23;;
8058;SDS011;4072;42.668;23.396;2022-09-03T08:14:43;6.30;;;5.70;;
8058;SDS011;4072;42.668;23.396;2022-09-03T08:17:12;7.63;;;6.63;;
8058;SDS011;4072;42.668;23.396;2022-09-03T08:19:40;6.40;;;5.80;;
8058;SDS011;4072;42.668;23.396;2022-09-03T08:22:11;6.27;;;5.67;;
8058;SDS011;4072;42.668;23.396;2022-09-03T08:24:39;6.30;;;5.50;;
8058;SDS011;4072;42.668;23.396;2022-09-03T08:27:07;5.40;;;4.90;;
8058;SDS011;4072;42.668;23.396;2022-09-03T08:29:35;5.53;;;5.03;;
8058;SDS011;4072;42.668;23.396;2022-09-03T08:32:04;6.10;;;5.40;;
8058;SDS011;4072;42.668;23.396;2022-09-03T08:34:33;8.30;;;6.23;;
8058;SDS011;4072;42.668;23.396;2022-09-03T08:37:00;6.47;;;5.53;;
8058;SDS011;4072;42.668;23.396;2022-09-03T08:39:28;5.80;;;5.20;;
8058;SDS011;4072;42.668;23.396;2022-09-03T08:42:10;6.60;;;6.00;;
8058;SDS011;4072;42.668;23.396;2022-09-03T08:44:44;6.43;;;5.83;;
8058;SDS011;4072;42.668;23.396;2022-09-03T08:47:14;5.67;;;5.17;;
8058;SDS011;4072;42.668;23.396;2022-09-03T08:49:45;6.93;;;5.63;;
8058;SDS011;4072;42.668;23.396;2022-09-03T08:52:19;5.00;;;4.50;;
8058;SDS011;4072;42.668;23.396;2022-09-03T08:54:48;5.60;;;5.10;;
8058;SDS011;4072;42.668;23.396;2022-09-03T08:57:17;6.27;;;5.67;;
8058;SDS011;4072;42.668;23.396;2022-09-03T08:59:46;5.17;;;4.67;;
8058;SDS011;4072;42.668;23.396;2022-09-03T09:02:16;5.67;;;5.13;;
8058;SDS011;4072;42.668;23.396;2022-09-03T09:04:52;5.40;;;4.90;;
8058;SDS011;4072;42.668;23.396;2022-09-03T09:07:23;4.80;;;4.40;;
8058;SDS011;4072;42.668;23.396;2022-09-03T09:09:55;5.13;;;4.73;;
8058;SDS011;4072;42.668;23.396;2022-09-03T09:12:28;5.87;;;4.80;;
8058;SDS011;4072;42.668;23.396;2022-09-03T09:15:10;5.07;;;4.60;;
8058;SDS011;4072;42.668;23.396;2022-09-03T09:17:44;5.10;;;3.57;;
8058;SDS011;4072;42.668;23.396;2022-09-03T09:20:20;4.63;;;4.23;;
8058;SDS011;4072;42.668;23.396;2022-09-03T09:22:51;4.30;;;4.00;;
8058;SDS011;4072;42.668;23.396;2022-09-03T09:25:22;4.80;;;4.40;;
8058;SDS011;4072;42.668;23.396;2022-09-03T09:27:53;5.00;;;4.60;;
8058;SDS011;4072;42.668;23.396;2022-09-03T09:30:23;4.43;;;4.03;;
8058;SDS011;4072;42.668;23.396;2022-09-03T09:32:51;4.90;;;4.50;;
8058;SDS011;4072;42.668;23.396;2022-09-03T09:35:20;5.70;;;5.17;;
8058;SDS011;4072;42.668;23.396;2022-09-03T09:37:49;4.43;;;4.13;;
8058;SDS011;4072;42.668;23.396;2022-09-03T09:40:24;5.87;;;5.07;;
8058;SDS011;4072;42.668;23.396;2022-09-03T09:43:01;6.17;;;4.93;;
8058;SDS011;4072;42.668;23.396;2022-09-03T09:45:29;4.17;;;3.77;;
8058;SDS011;4072;42.668;23.396;2022-09-03T09:47:59;4.80;;;4.40;;
8058;SDS011;4072;42.668;23.396;2022-09-03T09:50:29;4.43;;;4.03;;
8058;SDS011;4072;42.668;23.396;2022-09-03T09:53:00;4.60;;;4.20;;
8058;SDS011;4072;42.668;23.396;2022-09-03T09:55:32;5.03;;;4.63;;
8058;SDS011;4072;42.668;23.396;2022-09-03T09:58:06;4.85;;;4.45;;
8058;SDS011;4072;42.668;23.396;2022-09-03T10:00:39;5.32;;;4.82;;
8058;SDS011;4072;42.668;23.396;2022-09-03T10:03:09;6.72;;;5.03;;
8058;SDS011;4072;42.668;23.396;2022-09-03T10:05:40;6.40;;;5.20;;
8058;SDS011;4072;42.668;23.396;2022-09-03T10:08:17;6.18;;;5.60;;
8058;SDS011;4072;42.668;23.396;2022-09-03T10:10:46;4.88;;;4.47;;
8058;SDS011;4072;42.668;23.396;2022-09-03T10:13:16;5.75;;;5.25;;
8058;SDS011;4072;42.668;23.396;2022-09-03T10:15:45;5.47;;;4.97;;
8058;SDS011;4072;42.668;23.396;2022-09-03T10:18:17;4.90;;;4.50;;
8058;SDS011;4072;42.668;23.396;2022-09-03T10:20:56;5.00;;;4.60;;
8058;SDS011;4072;42.668;23.396;2022-09-03T10:23:25;6.00;;;4.30;;
8058;SDS011;4072;42.668;23.396;2022-09-03T10:25:56;6.00;;;4.68;;
8058;SDS011;4072;42.668;23.396;2022-09-03T10:28:29;4.65;;;4.07;;
8058;SDS011;4072;42.668;23.396;2022-09-03T10:31:02;4.65;;;4.25;;
8058;SDS011;4072;42.668;23.396;2022-09-03T10:33:38;4.70;;;4.30;;
8058;SDS011;4072;42.668;23.396;2022-09-03T10:36:11;4.88;;;4.47;;
8058;SDS011;4072;42.668;23.396;2022-09-03T10:38:42;5.38;;;4.88;;
8058;SDS011;4072;42.668;23.396;2022-09-03T10:41:15;4.97;;;4.47;;
8058;SDS011;4072;42.668;23.396;2022-09-03T10:44:03;4.68;;;4.28;;
8058;SDS011;4072;42.668;23.396;2022-09-03T10:46:35;3.97;;;3.67;;
8058;SDS011;4072;42.668;23.396;2022-09-03T10:49:08;4.85;;;4.45;;
8058;SDS011;4072;42.668;23.396;2022-09-03T10:51:42;5.47;;;4.97;;
8058;SDS011;4072;42.668;23.396;2022-09-03T10:54:21;5.40;;;4.90;;
8058;SDS011;4072;42.668;23.396;2022-09-03T10:56:53;5.22;;;4.82;;
8058;SDS011;4072;42.668;23.396;2022-09-03T10:59:27;6.03;;;4.47;;
8058;SDS011;4072;42.668;23.396;2022-09-03T11:02:00;5.22;;;4.82;;
8058;SDS011;4072;42.668;23.396;2022-09-03T11:04:35;5.85;;;4.75;;
8058;SDS011;4072;42.668;23.396;2022-09-03T11:07:08;4.72;;;4.32;;
8058;SDS011;4072;42.668;23.396;2022-09-03T11:09:37;4.97;;;4.57;;
8058;SDS011;4072;42.668;23.396;2022-09-03T11:12:07;5.53;;;5.03;;
8058;SDS011;4072;42.668;23.396;2022-09-03T11:14:37;3.92;;;3.63;;
8058;SDS011;4072;42.668;23.396;2022-09-03T11:17:08;5.78;;;4.53;;
8058;SDS011;4072;42.668;23.396;2022-09-03T11:19:40;5.30;;;4.80;;
8058;SDS011;4072;42.668;23.396;2022-09-03T11:22:12;5.15;;;4.38;;
8058;SDS011;4072;42.668;23.396;2022-09-03T11:24:48;4.33;;;3.97;;
8058;SDS011;4072;42.668;23.396;2022-09-03T11:27:19;4.37;;;4.07;;
8058;SDS011;4072;42.668;23.396;2022-09-03T11:29:50;4.03;;;3.73;;
8058;SDS011;4072;42.668;23.396;2022-09-03T11:32:21;4.30;;;3.90;;
8058;SDS011;4072;42.668;23.396;2022-09-03T11:34:51;4.50;;;4.10;;
8058;SDS011;4072;42.668;23.396;2022-09-03T11:37:23;4.17;;;3.80;;
8058;SDS011;4072;42.668;23.396;2022-09-03T11:39:56;4.70;;;4.10;;
8058;SDS011;4072;42.668;23.396;2022-09-03T11:42:28;4.37;;;3.97;;
8058;SDS011;4072;42.668;23.396;2022-09-03T11:45:11;4.13;;;3.73;;
8058;SDS011;4072;42.668;23.396;2022-09-03T11:47:40;3.83;;;3.50;;
8058;SDS011;4072;42.668;23.396;2022-09-03T11:50:15;4.20;;;3.80;;
8058;SDS011;4072;42.668;23.396;2022-09-03T11:52:48;4.33;;;3.97;;
8058;SDS011;4072;42.668;23.396;2022-09-03T11:55:25;4.78;;;4.38;;
8058;SDS011;4072;42.668;23.396;2022-09-03T11:58:09;4.37;;;3.97;;
8058;SDS011;4072;42.668;23.396;2022-09-03T12:00:38;4.33;;;4.03;;
8058;SDS011;4072;42.668;23.396;2022-09-03T12:03:12;4.57;;;4.17;;
8058;SDS011;4072;42.668;23.396;2022-09-03T12:05:43;4.60;;;4.20;;
8058;SDS011;4072;42.668;23.396;2022-09-03T12:08:25;4.87;;;4.47;;
8058;SDS011;4072;42.668;23.396;2022-09-03T12:11:02;5.30;;;4.57;;
8058;SDS011;4072;42.668;23.396;2022-09-03T12:13:38;5.20;;;4.80;;
8058;SDS011;4072;42.668;23.396;2022-09-03T12:18:59;4.83;;;4.43;;
8058;SDS011;4072;42.668;23.396;2022-09-03T12:21:27;4.13;;;3.83;;
8058;SDS011;4072;42.668;23.396;2022-09-03T12:24:00;4.43;;;4.03;;
8058;SDS011;4072;42.668;23.396;2022-09-03T12:26:28;5.00;;;4.50;;
8058;SDS011;4072;42.668;23.396;2022-09-03T12:28:56;5.07;;;4.20;;
8058;SDS011;4072;42.668;23.396;2022-09-03T12:31:26;3.57;;;3.27;;
8058;SDS011;4072;42.668;23.396;2022-09-03T12:33:56;4.87;;;4.07;;
8058;SDS011;4072;42.668;23.396;2022-09-03T12:36:25;5.40;;;4.90;;
8058;SDS011;4072;42.668;23.396;2022-09-03T12:38:53;4.72;;;4.30;;
8058;SDS011;4072;42.668;23.396;2022-09-03T12:41:45;4.15;;;3.85;;
8058;SDS011;4072;42.668;23.396;2022-09-03T12:44:23;4.75;;;4.30;;
8058;SDS011;4072;42.668;23.396;2022-09-03T12:46:58;8.02;;;7.22;;
8058;SDS011;4072;42.668;23.396;2022-09-03T12:49:47;5.38;;;4.93;;
8058;SDS011;4072;42.668;23.396;2022-09-03T12:52:16;4.63;;;4.22;;
8058;SDS011;4072;42.668;23.396;2022-09-03T12:54:46;3.97;;;3.67;;
8058;SDS011;4072;42.668;23.396;2022-09-03T12:57:18;4.53;;;4.13;;
8058;SDS011;4072;42.668;23.396;2022-09-03T12:59:47;4.95;;;4.55;;
8058;SDS011;4072;42.668;23.396;2022-09-03T13:02:16;5.78;;;5.15;;
8058;SDS011;4072;42.668;23.396;2022-09-03T13:04:45;5.00;;;4.60;;
8058;SDS011;4072;42.668;23.396;2022-09-03T13:07:14;4.67;;;3.73;;
8058;SDS011;4072;42.668;23.396;2022-09-03T13:09:48;4.67;;;4.27;;
8058;SDS011;4072;42.668;23.396;2022-09-03T13:12:21;4.10;;;3.80;;
8058;SDS011;4072;42.668;23.396;2022-09-03T13:14:51;4.27;;;3.97;;
8058;SDS011;4072;42.668;23.396;2022-09-03T13:17:29;4.37;;;3.93;;
8058;SDS011;4072;42.668;23.396;2022-09-03T13:22:57;4.33;;;3.93;;
8058;SDS011;4072;42.668;23.396;2022-09-03T13:25:29;3.60;;;3.00;;
8058;SDS011;4072;42.668;23.396;2022-09-03T13:28:06;3.60;;;3.30;;
8058;SDS011;4072;42.668;23.396;2022-09-03T13:30:37;3.13;;;2.83;;
8058;SDS011;4072;42.668;23.396;2022-09-03T13:33:11;3.93;;;3.53;;
8058;SDS011;4072;42.668;23.396;2022-09-03T13:35:43;3.08;;;2.10;;
8058;SDS011;4072;42.668;23.396;2022-09-03T13:38:26;4.40;;;2.38;;
8058;SDS011;4072;42.668;23.396;2022-09-03T13:41:05;2.42;;;2.15;;
8058;SDS011;4072;42.668;23.396;2022-09-03T13:43:38;3.33;;;2.90;;
8058;SDS011;4072;42.668;23.396;2022-09-03T13:46:09;3.50;;;3.17;;
8058;SDS011;4072;42.668;23.396;2022-09-03T13:48:39;3.92;;;3.25;;
8058;SDS011;4072;42.668;23.396;2022-09-03T13:51:25;3.63;;;3.33;;
8058;SDS011;4072;42.668;23.396;2022-09-03T13:54:01;3.40;;;3.10;;
8058;SDS011;4072;42.668;23.396;2022-09-03T13:56:34;3.05;;;2.80;;
8058;SDS011;4072;42.668;23.396;2022-09-03T13:59:05;3.28;;;2.97;;
8058;SDS011;4072;42.668;23.396;2022-09-03T14:01:45;2.78;;;2.58;;
8058;SDS011;4072;42.668;23.396;2022-09-03T14:04:20;2.78;;;2.58;;
8058;SDS011;4072;42.668;23.396;2022-09-03T14:06:53;3.78;;;3.30;;
8058;SDS011;4072;42.668;23.396;2022-09-03T14:09:22;2.50;;;2.30;;
8058;SDS011;4072;42.668;23.396;2022-09-03T14:11:57;2.53;;;2.33;;
8058;SDS011;4072;42.668;23.396;2022-09-03T14:14:33;4.57;;;2.58;;
8058;SDS011;4072;42.668;23.396;2022-09-03T14:17:05;2.85;;;2.65;;
8058;SDS011;4072;42.668;23.396;2022-09-03T14:19:39;3.08;;;2.88;;
8058;SDS011;4072;42.668;23.396;2022-09-03T14:22:10;2.80;;;2.60;;
8058;SDS011;4072;42.668;23.396;2022-09-03T14:24:43;3.45;;;3.15;;
8058;SDS011;4072;42.668;23.396;2022-09-03T14:27:11;3.30;;;3.00;;
8058;SDS011;4072;42.668;23.396;2022-09-03T14:29:48;3.70;;;3.40;;
8058;SDS011;4072;42.668;23.396;2022-09-03T14:32:20;2.85;;;2.65;;
8058;SDS011;4072;42.668;23.396;2022-09-03T14:37:38;2.78;;;2.58;;
8058;SDS011;4072;42.668;23.396;2022-09-03T14:40:11;3.08;;;2.88;;
8058;SDS011;4072;42.668;23.396;2022-09-03T14:42:42;3.22;;;2.95;;
8058;SDS011;4072;42.668;23.396;2022-09-03T14:45:33;3.05;;;2.80;;
8058;SDS011;4072;42.668;23.396;2022-09-03T14:48:11;3.45;;;3.15;;
8058;SDS011;4072;42.668;23.396;2022-09-03T14:50:45;2.67;;;2.47;;
8058;SDS011;4072;42.668;23.396;2022-09-03T14:53:27;3.30;;;3.10;;
8058;SDS011;4072;42.668;23.396;2022-09-03T15:01:28;3.47;;;3.17;;
8058;SDS011;4072;42.668;23.396;2022-09-03T15:04:25;3.53;;;3.23;;
8058;SDS011;4072;42.668;23.396;2022-09-03T15:07:02;3.80;;;3.50;;
8058;SDS011;4072;42.668;23.396;2022-09-03T15:09:36;3.37;;;3.17;;
8058;SDS011;4072;42.668;23.396;2022-09-03T15:12:07;4.83;;;3.23;;
8058;SDS011;4072;42.668;23.396;2022-09-03T15:14:38;4.17;;;3.53;;
8058;SDS011;4072;42.668;23.396;2022-09-03T15:17:17;4.03;;;3.47;;
8058;SDS011;4072;42.668;23.396;2022-09-03T15:19:55;5.33;;;3.87;;
8058;SDS011;4072;42.668;23.396;2022-09-03T15:22:32;3.60;;;3.40;;
8058;SDS011;4072;42.668;23.396;2022-09-03T15:25:04;5.03;;;3.97;;
8058;SDS011;4072;42.668;23.396;2022-09-03T15:27:37;6.80;;;3.63;;
8058;SDS011;4072;42.668;23.396;2022-09-03T15:30:08;3.63;;;3.30;;
8058;SDS011;4072;42.668;23.396;2022-09-03T15:32:45;4.00;;;3.70;;
8058;SDS011;4072;42.668;23.396;2022-09-03T15:35:17;4.17;;;3.87;;
8058;SDS011;4072;42.668;23.396;2022-09-03T15:37:52;3.83;;;3.53;;
8058;SDS011;4072;42.668;23.396;2022-09-03T15:40:23;4.20;;;3.77;;